VDPPVTBD

Guest
Details From VDPP - Phnom Penh Intl
To VTBD - Bangkok Don Mueang Intl
Flight Number -
Tags generated
Created
Modified
Stats Distance 286 nm / 530 km
Max Altitude 26,600 ft / 8,108 m
Waypoints 5
Social Downloads 2
Likes 0
Share VATSIM

Download

Looking for another format? Having issues loading an existing format? Contact us
Advertisement - Login to hide

Notes

Basic altitude profile: - Ascent Rate: 2500ft/min - Ascent Speed: 250kts - Cruise Altitude: 35000ft - Cruise Speed: 420kts - Descent Rate: 1500ft/min - Descent Speed: 250kts Options: - Use NATs: yes - Use PACOTS: yes - Use low airways: yes - Use high airways: yes

Route

VDPP PNH R468 GOMES VTBD

ID Type Via Altitude Latitude Longitude Leg Dist Tot Dist Heading (true) Name
O VDPP APT - 0 ft / 0 m 11.54654˚ 104.84414˚ - 0 nm - Phnom Penh Intl
PNH VOR - 0 ft / 0 m 11.54667˚ 104.84167˚ 0 nm 0 nm 273° / 273° PHNOM PENH VOR-DME
BOKAK FIX R468 (AWY-LO) 26,600 ft / 8,108 m 12.96008˚ 102.49649˚ 161 nm 161 nm 302° / 301° -
GOMES FIX R468 (AWY-HI) 12,800 ft / 3,901 m 13.40171˚ 101.58492˚ 59 nm 221 nm 297° / 296° -
O VTBD APT - 0 ft / 0 m 13.91260˚ 100.60680˚ 64 nm 286 nm 298° / 298° Bangkok Don Mueang Intl

Altitude Profile

Advertisement - Login to hide

Weather


0- 5 10 15 20 25 30 35+ Temperature / ° C

Clouds and Precipitation
Forecast for 2017-12-13 00:00 UTC. Updated an hour ago

Ground ~20,000 ft ~40,000 ft Winds

VDPP

Details ICAO VDPP (PNH)
Name Phnom Penh Intl
Region Cambodia
Timezone Asia/Phnom_Penh (UTC+7.0)
Stats Elevation 40 ft / 12 m (AMSL)
Location 11.546542° 104.844142°
Runways 1
Magnetic Variation 0.493° W

METAR

Not found

TAF

TAF VDPP 121700Z 1218/1312 03005KT 9999 SCT017= TAF VDSR 121700Z 1218/1312 02004KT 9999 SCT017

Decode

Departure Runways

ID Width Length Bearing (true) Bearing (mag) Surface Threshold Offset Overrun Length
05 144 ft / 44 m 9,815 ft / 2,992 m 45.61° 46.10° Asphalt 400 ft / 122 m 0 ft / 0 m
23 144 ft / 44 m 9,815 ft / 2,992 m 225.61° 226.10° Asphalt 492 ft / 150 m 0 ft / 0 m

VTBD

Details ICAO VTBD (DMK)
Name Bangkok Don Mueang Intl
Region Thailand
Timezone Asia/Bangkok (UTC+7.0)
Stats Elevation 9 ft / 3 m (AMSL)
Location 13.912597° 100.606799°
Runways 2
Magnetic Variation 0.582° W

METAR

VTBD 122200Z 12004KT 9000 FEW040 26/25 Q1011 NOSIG

Decode

TAF

TAF VTBD 121700Z 1218/1324 19005KT 8000 FEW040 BECMG 1222/1224 12003KT 3000 BR FEW025 TEMPO 1223/1301 1500 BR BECMG 1302/1304 19008KT 9999 NSW BECMG 1316/1318 13005KT FEW040

Decode

Destination Runways

ID Width Length Bearing (true) Bearing (mag) Surface Threshold Offset Overrun Length
03L 197 ft / 60 m 12,186 ft / 3,714 m 28.55° 29.13° Asphalt 0 ft / 0 m 492 ft / 150 m
03R 148 ft / 45 m 11,520 ft / 3,511 m 28.50° 29.08° Asphalt 0 ft / 0 m 348 ft / 106 m
21L 148 ft / 45 m 11,520 ft / 3,511 m 208.50° 209.08° Asphalt 1,145 ft / 349 m 180 ft / 55 m
21R 197 ft / 60 m 12,186 ft / 3,714 m 208.55° 209.13° Asphalt 0 ft / 0 m 492 ft / 150 m

Approach Navaids

Runway Type Ident Frequency Range Bearing (true) Bearing (mag) Slope Elevation
03L Localiser IBKD 109.70 MHz 18 nm / 33 km 28.52° 29.11° - 6 ft / 2 m (AMSL)
03L Glidescope IBKD 109.70 MHz 10 nm / 19 km 28.55° 29.14° 3.00° 7 ft / 2 m (AMSL)
03L DME IBKD 109.70 MHz 18 nm / 33 km - - - 3 ft / 1 m (AMSL)
21L Localiser IDMG 110.30 MHz 18 nm / 33 km 208.59° 209.18° - 7 ft / 2 m (AMSL)
21L Glidescope IDMG 110.30 MHz 10 nm / 19 km 208.50° 209.08° 3.15° 8 ft / 2 m (AMSL)
21L DME IDMG 110.30 MHz 18 nm / 33 km - - - 9 ft / 3 m (AMSL)
21R Localiser IBKK 109.30 MHz 18 nm / 33 km 208.58° 209.16° - 7 ft / 2 m (AMSL)
21R Glidescope IBKK 109.30 MHz 10 nm / 19 km 208.55° 209.14° 3.00° 7 ft / 2 m (AMSL)

Popular Alternatives